createdAt,value
2022-11-24T00:01:15.835Z,99233.69
2022-11-24T00:03:44.040Z,99238.97
2022-11-24T00:06:13.798Z,99250.47
2022-11-24T00:08:42.818Z,99249.19
2022-11-24T00:11:13.231Z,99244.63
2022-11-24T00:13:41.605Z,99227.94
2022-11-24T00:16:13.709Z,99250.06
2022-11-24T00:18:42.297Z,99246.59
2022-11-24T00:21:10.371Z,99249.19
2022-11-24T00:23:38.255Z,99264.31
2022-11-24T00:26:06.531Z,99263.88
2022-11-24T00:28:35.220Z,99269.41
2022-11-24T00:31:03.017Z,99268.97
2022-11-24T00:33:30.050Z,99260.09
2022-11-24T00:35:58.871Z,99267.03
2022-11-24T00:38:26.570Z,99267.41
2022-11-24T00:40:55.479Z,99269.34
2022-11-24T00:43:22.571Z,99273.78
2022-11-24T00:45:49.849Z,99277.97
2022-11-24T00:48:16.895Z,99276.56
2022-11-24T00:50:43.899Z,99273.66
2022-11-24T00:53:10.951Z,99271.41
2022-11-24T00:55:38.067Z,99293.50
2022-11-24T00:58:05.115Z,99293.72
2022-11-24T01:00:35.343Z,99292.13
2022-11-24T01:03:05.207Z,99302.91
2022-11-24T01:05:32.247Z,99290.00
2022-11-24T01:07:59.118Z,99281.63
2022-11-24T01:10:26.375Z,99306.78
2022-11-24T01:12:53.747Z,99299.91
2022-11-24T01:15:23.862Z,99301.81
2022-11-24T01:17:51.376Z,99297.13
2022-11-24T01:20:18.516Z,99308.47
2022-11-24T01:22:48.819Z,99310.44
2022-11-24T01:25:16.319Z,99318.75
2022-11-24T01:27:43.304Z,99322.63
2022-11-24T01:30:11.210Z,99319.00
2022-11-24T01:32:38.199Z,99322.38
2022-11-24T01:35:06.390Z,99327.16
2022-11-24T01:37:33.521Z,99327.56
2022-11-24T01:40:00.918Z,99330.81
2022-11-24T01:42:40.302Z,99322.72
2022-11-24T01:45:28.558Z,99320.28
2022-11-24T01:47:56.310Z,99326.41
2022-11-24T01:50:23.813Z,99322.91
2022-11-24T01:52:54.277Z,99324.84
2022-11-24T01:55:34.003Z,99324.88
2022-11-24T01:58:09.075Z,99326.22
2022-11-24T02:00:38.656Z,99324.22
2022-11-24T02:03:06.667Z,99325.22
2022-11-24T02:05:41.286Z,99342.91
2022-11-24T02:08:19.538Z,99340.91
2022-11-24T02:10:47.511Z,99338.63
2022-11-24T02:13:15.993Z,99340.91
2022-11-24T02:15:43.255Z,99353.34
2022-11-24T02:18:12.428Z,99352.88
2022-11-24T02:20:39.638Z,99359.31
2022-11-24T02:23:21.552Z,99363.63
2022-11-24T02:26:11.794Z,99356.66
2022-11-24T02:28:39.205Z,99350.09
2022-11-24T02:31:06.484Z,99345.34
2022-11-24T02:33:34.901Z,99370.44
2022-11-24T02:36:01.955Z,99356.09
2022-11-24T02:38:37.712Z,99366.13
2022-11-24T02:41:11.451Z,99376.19
2022-11-24T02:43:55.060Z,99370.19
2022-11-24T02:46:22.519Z,99365.16
2022-11-24T02:48:49.510Z,99372.03
2022-11-24T02:51:16.645Z,99360.53
2022-11-24T02:53:43.994Z,99353.38
2022-11-24T02:56:11.042Z,99362.22
2022-11-24T02:58:38.164Z,99358.75
2022-11-24T03:01:05.478Z,99363.50
2022-11-24T03:03:32.628Z,99368.06
2022-11-24T03:05:59.666Z,99370.22
2022-11-24T03:08:26.586Z,99360.28
2022-11-24T03:10:54.678Z,99383.94
2022-11-24T03:13:21.765Z,99383.59
2022-11-24T03:15:49.075Z,99387.19
2022-11-24T03:18:16.142Z,99381.22
2022-11-24T03:20:43.051Z,99381.22
2022-11-24T03:23:10.319Z,99385.41
2022-11-24T03:25:37.376Z,99389.22
2022-11-24T03:28:10.062Z,99385.03
2022-11-24T03:30:37.136Z,99388.97
2022-11-24T03:33:05.248Z,99381.94
2022-11-24T03:35:32.227Z,99395.91
2022-11-24T03:37:59.350Z,99393.28
2022-11-24T03:40:26.440Z,99400.09
2022-11-24T03:42:53.546Z,99393.88
2022-11-24T03:45:44.910Z,99395.31
2022-11-24T03:48:08.220Z,99387.56
2022-11-24T03:50:35.343Z,99399.25
2022-11-24T03:53:02.482Z,99390.16
2022-11-24T03:55:29.424Z,99398.66
2022-11-24T03:57:56.507Z,99400.94
2022-11-24T04:00:23.516Z,99407.63
2022-11-24T04:02:50.767Z,99412.19
2022-11-24T04:05:17.817Z,99405.47
2022-11-24T04:07:44.919Z,99412.75
2022-11-24T04:10:12.003Z,99409.66
2022-11-24T04:12:46.232Z,99425.91
2022-11-24T04:15:15.937Z,99421.63
2022-11-24T04:17:44.285Z,99419.22
2022-11-24T04:20:12.532Z,99418.38
2022-11-24T04:22:40.064Z,99429.75
2022-11-24T04:25:08.508Z,99422.31
2022-11-24T04:27:37.192Z,99421.63
2022-11-24T04:30:08.145Z,99436.44
2022-11-24T04:32:35.776Z,99427.59
2022-11-24T04:35:04.465Z,99438.44
2022-11-24T04:37:31.496Z,99438.94
2022-11-24T04:39:58.508Z,99442.44
2022-11-24T04:42:25.541Z,99444.81
2022-11-24T04:44:52.759Z,99443.84
2022-11-24T04:47:25.641Z,99434.16
2022-11-24T04:49:55.623Z,99446.00
2022-11-24T04:52:24.491Z,99448.16
2022-11-24T04:54:51.950Z,99456.03
2022-11-24T04:57:24.820Z,99455.34
2022-11-24T04:59:52.906Z,99461.44
2022-11-24T05:02:20.791Z,99465.13
2022-11-24T05:04:48.221Z,99467.03
2022-11-24T05:07:18.975Z,99471.13
2022-11-24T05:10:05.937Z,99470.50
2022-11-24T05:12:33.171Z,99474.69
2022-11-24T05:15:05.012Z,99490.97
2022-11-24T05:17:34.981Z,99488.34
2022-11-24T05:20:02.397Z,99494.91
2022-11-24T05:22:31.761Z,99496.47
2022-11-24T05:24:59.115Z,99483.66
2022-11-24T05:27:26.073Z,99484.03
2022-11-24T05:29:53.224Z,99486.19
2022-11-24T05:32:20.372Z,99498.13
2022-11-24T05:34:48.101Z,99495.38
2022-11-24T05:37:15.184Z,99512.72
2022-11-24T05:39:42.132Z,99512.63
2022-11-24T05:42:28.173Z,99512.03
2022-11-24T05:44:55.330Z,99518.97
2022-11-24T05:47:22.366Z,99524.69
2022-11-24T05:49:49.893Z,99527.81
2022-11-24T05:52:17.013Z,99528.31
2022-11-24T05:54:44.037Z,99531.88
2022-11-24T05:57:10.938Z,99536.78
2022-11-24T05:59:38.009Z,99535.47
2022-11-24T06:02:05.090Z,99543.63
2022-11-24T06:04:32.596Z,99546.25
2022-11-24T06:07:00.023Z,99543.63
2022-11-24T06:09:27.188Z,99557.59
2022-11-24T06:11:56.790Z,99568.13
2022-11-24T06:14:24.395Z,99563.69
2022-11-24T06:16:51.672Z,99562.13
2022-11-24T06:19:18.740Z,99558.91
2022-11-24T06:21:45.688Z,99564.91
2022-11-24T06:24:12.894Z,99572.63
2022-11-24T06:26:39.861Z,99569.19
2022-11-24T06:29:07.023Z,99578.63
2022-11-24T06:31:34.034Z,99582.78
2022-11-24T06:34:01.138Z,99585.94
2022-11-24T06:36:28.335Z,99585.56
2022-11-24T06:38:55.452Z,99577.34
2022-11-24T06:41:22.395Z,99580.69
2022-11-24T06:43:49.429Z,99580.19
2022-11-24T06:46:16.410Z,99580.06
2022-11-24T06:48:43.427Z,99582.22
2022-11-24T06:51:15.393Z,99584.84
2022-11-24T06:53:42.369Z,99586.88
2022-11-24T06:56:16.393Z,99583.56
2022-11-24T06:58:46.418Z,99585.56
2022-11-24T07:01:32.518Z,99586.91
2022-11-24T07:03:59.674Z,99577.78
2022-11-24T07:06:28.513Z,99596.78
2022-11-24T07:08:55.641Z,99594.88
2022-11-24T07:11:24.135Z,99591.28
2022-11-24T07:13:55.178Z,99598.84
2022-11-24T07:16:26.672Z,99599.19
2022-11-24T07:18:56.022Z,99594.56
2022-11-24T07:21:24.253Z,99583.28
2022-11-24T07:23:53.096Z,99595.25
2022-11-24T07:26:20.699Z,99589.63
2022-11-24T07:28:47.730Z,99592.38
2022-11-24T07:31:21.079Z,99584.91
2022-11-24T07:33:53.723Z,99588.38
2022-11-24T07:36:22.005Z,99599.25
2022-11-24T07:38:50.249Z,99599.81
2022-11-24T07:41:22.469Z,99585.38
2022-11-24T07:43:51.010Z,99569.00
2022-11-24T07:46:22.739Z,99563.63
2022-11-24T07:48:50.443Z,99581.47
2022-11-24T07:51:23.139Z,99598.91
2022-11-24T07:53:56.450Z,99594.72
2022-11-24T07:56:28.805Z,99578.09
2022-11-24T07:58:58.644Z,99585.63
2022-11-24T08:01:26.986Z,99588.75
2022-11-24T08:03:58.088Z,99612.44
2022-11-24T08:06:27.674Z,99595.22
2022-11-24T08:08:58.458Z,99600.84
2022-11-24T08:11:26.285Z,99614.13
2022-11-24T08:13:54.111Z,99597.50
2022-11-24T08:16:21.283Z,99609.75
2022-11-24T08:18:54.003Z,99610.59
2022-11-24T08:21:23.400Z,99627.97
2022-11-24T08:23:56.834Z,99629.38
2022-11-24T08:26:25.358Z,99635.97
2022-11-24T08:28:58.130Z,99632.28
2022-11-24T08:31:34.300Z,99632.88
2022-11-24T08:34:02.948Z,99649.88
2022-11-24T08:36:30.018Z,99646.16
2022-11-24T08:38:59.110Z,99652.75
2022-11-24T08:41:28.235Z,99633.47
2022-11-24T08:43:56.022Z,99651.19
2022-11-24T08:47:13.653Z,99667.06
2022-11-24T08:49:34.756Z,99650.53
2022-11-24T08:52:10.039Z,99652.72
2022-11-24T08:54:42.879Z,99649.63
2022-11-24T08:57:21.649Z,99678.56
2022-11-24T09:00:07.675Z,99655.72
2022-11-24T09:02:46.367Z,99661.72
2022-11-24T09:08:11.697Z,99679.31
2022-11-24T09:13:46.344Z,99692.50
2022-11-24T09:16:23.134Z,99687.69
2022-11-24T09:32:16.480Z,99688.16
2022-11-24T09:37:48.728Z,99692.84
2022-11-24T09:44:11.144Z,99686.16
2022-11-24T09:46:53.127Z,99676.69
2022-11-24T09:50:02.634Z,99688.09
2022-11-24T09:53:16.053Z,99686.38
2022-11-24T09:56:26.956Z,99698.97
2022-11-24T09:59:03.707Z,99659.22
2022-11-24T10:01:47.921Z,99689.63
2022-11-24T10:04:42.350Z,99690.13
2022-11-24T10:07:12.145Z,99690.94
2022-11-24T10:09:44.944Z,99686.75
2022-11-24T10:12:21.356Z,99700.41
2022-11-24T10:15:16.577Z,99701.94
2022-11-24T10:18:13.237Z,99701.09
2022-11-24T10:21:06.388Z,99709.59
2022-11-24T10:24:08.192Z,99697.50
2022-11-24T10:27:28.095Z,99689.75
2022-11-24T10:30:23.740Z,99686.66
2022-11-24T10:33:30.552Z,99693.34
2022-11-24T10:36:23.199Z,99691.44
2022-11-24T10:39:24.119Z,99722.13
2022-11-24T10:43:00.263Z,99693.34
2022-11-24T10:45:37.542Z,99699.06
2022-11-24T10:48:09.082Z,99715.34
2022-11-24T10:50:41.752Z,99713.56
2022-11-24T10:53:08.910Z,99724.00
2022-11-24T10:55:56.460Z,99718.75
2022-11-24T11:03:40.448Z,99729.72
2022-11-24T11:06:51.797Z,99711.47
2022-11-24T11:10:18.849Z,99737.56
2022-11-24T11:12:48.610Z,99730.81
2022-11-24T11:15:29.661Z,99740.94
2022-11-24T11:18:26.022Z,99732.97
2022-11-24T11:21:46.280Z,99721.03
2022-11-24T11:25:27.853Z,99728.22
2022-11-24T11:35:53.499Z,99710.41
2022-11-24T11:38:21.203Z,99734.81
2022-11-24T11:43:46.015Z,99729.41
2022-11-24T11:46:27.327Z,99738.28
2022-11-24T11:48:59.948Z,99713.97
2022-11-24T11:51:59.347Z,99734.13
2022-11-24T12:02:36.639Z,99765.78
2022-11-24T12:05:26.237Z,99753.00
2022-11-24T12:08:16.018Z,99762.03
2022-11-24T12:11:10.327Z,99754.66
2022-11-24T12:14:19.805Z,99762.56
2022-11-24T12:17:27.699Z,99762.19
2022-11-24T12:20:46.044Z,99737.28
2022-11-24T12:24:07.588Z,99741.88
2022-11-24T12:27:23.341Z,99758.09
2022-11-24T12:30:53.435Z,99746.00
2022-11-24T12:34:44.295Z,99766.19
2022-11-24T12:37:46.228Z,99764.38
2022-11-24T12:44:10.159Z,99765.53
2022-11-24T12:47:28.296Z,99776.53
2022-11-24T12:50:16.527Z,99775.78
2022-11-24T13:06:02.847Z,99789.66
2022-11-24T13:08:51.682Z,99778.38
2022-11-24T13:11:22.519Z,99797.84
2022-11-24T13:14:11.475Z,99778.69
2022-11-24T13:17:21.875Z,99790.16
2022-11-24T13:21:43.483Z,99817.88
2022-11-24T13:32:55.150Z,99822.06
2022-11-24T13:38:58.218Z,99806.72
2022-11-24T13:52:42.353Z,99851.28
2022-11-24T13:55:23.609Z,99852.09
2022-11-24T13:57:54.491Z,99854.22
2022-11-24T14:00:33.460Z,99860.34
2022-11-24T14:03:30.912Z,99856.25
2022-11-24T14:05:59.558Z,99854.56
2022-11-24T14:08:30.423Z,99862.13
2022-11-24T14:10:59.450Z,99856.09
2022-11-24T14:13:32.567Z,99860.44
2022-11-24T14:16:12.687Z,99854.53
2022-11-24T14:18:42.815Z,99858.81
2022-11-24T14:21:44.611Z,99858.75
2022-11-24T14:24:53.878Z,99883.72
2022-11-24T14:27:41.210Z,99878.78
2022-11-24T14:30:22.391Z,99891.06
2022-11-24T14:32:56.043Z,99888.31
2022-11-24T14:35:26.212Z,99887.47
2022-11-24T14:37:56.043Z,99891.50
2022-11-24T14:44:01.514Z,99894.59
2022-11-24T14:46:28.826Z,99877.97
2022-11-24T14:48:59.248Z,99888.63
2022-11-24T14:51:33.227Z,99886.22
2022-11-24T14:54:12.418Z,99893.50
2022-11-24T14:56:46.201Z,99882.38
2022-11-24T14:59:26.651Z,99899.88
2022-11-24T15:01:59.781Z,99890.81
2022-11-24T15:07:19.631Z,99912.69
2022-11-24T15:10:43.728Z,99913.94
2022-11-24T15:13:21.658Z,99907.88
2022-11-24T15:16:03.416Z,99896.44
2022-11-24T15:18:56.984Z,99918.63
2022-11-24T15:21:35.386Z,99915.34
2022-11-24T15:24:19.513Z,99917.59
2022-11-24T15:26:47.129Z,99925.63
2022-11-24T15:29:14.802Z,99913.56
2022-11-24T15:31:46.432Z,99911.69
2022-11-24T15:34:18.342Z,99922.16
2022-11-24T15:36:45.757Z,99911.22
2022-11-24T15:39:13.723Z,99920.22
2022-11-24T15:41:40.963Z,99929.56
2022-11-24T15:44:09.720Z,99925.25
2022-11-24T15:46:38.860Z,99931.72
2022-11-24T15:49:06.640Z,99939.84
2022-11-24T15:51:42.908Z,99921.41
2022-11-24T15:54:14.450Z,99935.81
2022-11-24T15:56:42.144Z,99937.78
2022-11-24T15:59:20.803Z,99935.53
2022-11-24T16:01:49.841Z,99948.50
2022-11-24T16:04:17.196Z,99948.13
2022-11-24T16:06:44.134Z,99951.66
2022-11-24T16:09:18.545Z,99951.59
2022-11-24T16:11:48.082Z,99958.44
2022-11-24T16:14:22.856Z,99951.28
2022-11-24T16:16:52.953Z,99960.81
2022-11-24T16:19:19.859Z,99959.69
2022-11-24T16:21:52.870Z,99953.72
2022-11-24T16:24:21.009Z,99957.00
2022-11-24T16:26:55.619Z,99964.19
2022-11-24T16:29:35.333Z,99959.56
2022-11-24T16:32:05.561Z,99968.56
2022-11-24T16:34:32.710Z,99951.06
2022-11-24T16:37:00.019Z,99960.88
2022-11-24T16:39:29.695Z,99954.09
2022-11-24T16:41:58.916Z,99973.09
2022-11-24T16:44:26.005Z,99965.59
2022-11-24T16:46:56.429Z,99961.69
2022-11-24T16:49:29.222Z,99976.22
2022-11-24T16:51:56.351Z,99966.81
2022-11-24T16:54:23.610Z,99976.88
2022-11-24T16:56:50.480Z,99975.28
2022-11-24T16:59:17.715Z,99984.44
2022-11-24T17:01:46.687Z,99982.88
2022-11-24T17:04:14.170Z,99995.38
2022-11-24T17:06:41.231Z,99980.72
2022-11-24T17:09:09.233Z,99985.00
2022-11-24T17:11:44.550Z,99984.06
2022-11-24T17:14:14.696Z,99981.22
2022-11-24T17:16:42.872Z,99979.03
2022-11-24T17:19:10.459Z,99976.22
2022-11-24T17:21:37.802Z,99956.38
2022-11-24T17:24:05.606Z,99975.53
2022-11-24T17:26:33.659Z,99991.94
2022-11-24T17:29:00.711Z,99988.28
2022-11-24T17:31:31.080Z,99988.03
2022-11-24T17:34:03.338Z,99993.81
2022-11-24T17:36:32.473Z,99986.41
2022-11-24T17:39:00.242Z,99993.88
2022-11-24T17:41:28.167Z,99996.94
2022-11-24T17:43:59.505Z,99989.69
2022-11-24T17:46:28.022Z,99995.13
2022-11-24T17:48:55.331Z,100002.78
2022-11-24T17:51:24.634Z,100003.31
2022-11-24T17:54:18.657Z,99999.63
2022-11-24T17:56:53.193Z,100003.69
2022-11-24T17:59:25.255Z,99995.66
2022-11-24T18:01:53.491Z,99999.81
2022-11-24T18:04:20.694Z,100012.72
2022-11-24T18:06:47.583Z,100014.97
2022-11-24T18:09:14.577Z,100009.34
2022-11-24T18:11:44.061Z,100017.63
2022-11-24T18:14:11.078Z,100018.16
2022-11-24T18:16:38.057Z,100015.28
2022-11-24T18:19:18.414Z,100021.78
2022-11-24T18:21:51.293Z,100024.09
2022-11-24T18:27:27.916Z,100016.53
2022-11-24T18:30:24.064Z,100023.00
2022-11-24T18:33:24.605Z,100033.44
2022-11-24T18:36:37.715Z,100025.47
2022-11-24T18:39:33.022Z,100032.63
2022-11-24T18:42:00.150Z,100018.59
2022-11-24T18:44:38.163Z,100033.09
2022-11-24T18:52:39.521Z,100013.78
2022-11-24T18:55:08.469Z,100036.47
2022-11-24T18:57:38.951Z,100034.75
2022-11-24T19:00:07.786Z,100028.97
2022-11-24T19:02:35.378Z,100015.69
2022-11-24T19:05:04.954Z,100030.88
2022-11-24T19:07:37.438Z,100016.44
2022-11-24T19:10:08.499Z,100018.31
2022-11-24T19:12:39.677Z,100034.44
2022-11-24T19:15:07.511Z,100035.44
2022-11-24T19:17:35.647Z,100052.56
2022-11-24T19:20:06.323Z,100053.34
2022-11-24T19:22:35.797Z,100035.47
2022-11-24T19:25:16.342Z,100016.53
2022-11-24T19:28:17.123Z,100019.72
2022-11-24T19:31:21.501Z,100018.78
2022-11-24T19:34:03.701Z,100036.13
2022-11-24T19:36:38.418Z,100043.16
2022-11-24T19:39:09.785Z,100035.19
2022-11-24T19:41:36.735Z,100034.41
2022-11-24T19:44:04.108Z,100041.38
2022-11-24T19:46:34.817Z,100036.06
2022-11-24T19:49:07.336Z,100043.94
2022-11-24T19:51:49.364Z,100019.13
2022-11-24T19:54:17.250Z,100035.03
2022-11-24T19:56:44.451Z,100042.41
2022-11-24T19:59:13.695Z,100058.22
2022-11-24T20:01:42.750Z,100061.75
2022-11-24T20:04:12.833Z,100052.97
2022-11-24T20:06:42.091Z,100062.31
2022-11-24T20:09:16.529Z,100054.66
2022-11-24T20:11:44.195Z,100054.53
2022-11-24T20:17:32.696Z,100060.06
2022-11-24T20:20:02.117Z,100056.25
2022-11-24T20:22:30.027Z,100063.09
2022-11-24T20:24:56.994Z,100053.34
2022-11-24T20:27:23.887Z,100058.53
2022-11-24T20:29:53.679Z,100057.03
2022-11-24T20:32:20.809Z,100052.97
2022-11-24T20:34:52.408Z,100055.13
2022-11-24T20:37:19.370Z,100057.47
2022-11-24T20:39:46.445Z,100062.81
2022-11-24T20:42:14.563Z,100067.16
2022-11-24T20:44:41.645Z,100053.91
2022-11-24T20:47:11.173Z,100078.97
2022-11-24T20:49:47.114Z,100068.75
2022-11-24T20:52:17.697Z,100074.75
2022-11-24T20:54:46.991Z,100068.41
2022-11-24T20:57:16.682Z,100077.34
2022-11-24T20:59:43.979Z,100088.19
2022-11-24T21:02:13.851Z,100086.50
2022-11-24T21:04:47.573Z,100089.97
2022-11-24T21:07:15.872Z,100087.09
2022-11-24T21:09:43.014Z,100090.38
2022-11-24T21:12:10.205Z,100096.63
2022-11-24T21:14:37.670Z,100098.66
2022-11-24T21:17:04.984Z,100103.88
2022-11-24T21:19:36.002Z,100102.22
2022-11-24T21:22:02.909Z,100106.59
2022-11-24T21:24:33.460Z,100110.22
2022-11-24T21:27:03.151Z,100106.28
2022-11-24T21:29:33.255Z,100111.66
2022-11-24T21:32:03.176Z,100114.03
2022-11-24T21:34:30.271Z,100116.28
2022-11-24T21:37:12.141Z,100108.75
2022-11-24T21:39:40.962Z,100108.06
2022-11-24T21:42:07.952Z,100113.47
2022-11-24T21:44:38.334Z,100113.78
2022-11-24T21:47:05.462Z,100123.41
2022-11-24T21:49:32.619Z,100117.50
2022-11-24T21:51:59.533Z,100111.25
2022-11-24T21:54:26.629Z,100127.56
2022-11-24T21:56:54.277Z,100126.38
2022-11-24T21:59:22.164Z,100120.97
2022-11-24T22:01:57.926Z,100128.81
2022-11-24T22:04:25.068Z,100132.22
2022-11-24T22:06:55.591Z,100121.38
2022-11-24T22:09:22.828Z,100127.88
2022-11-24T22:11:49.854Z,100126.75
2022-11-24T22:14:17.123Z,100130.75
2022-11-24T22:16:47.591Z,100129.41
2022-11-24T22:19:16.936Z,100122.69
2022-11-24T22:21:48.244Z,100126.91
2022-11-24T22:24:15.287Z,100127.69
2022-11-24T22:26:42.249Z,100129.44
2022-11-24T22:29:09.306Z,100140.34
2022-11-24T22:31:36.405Z,100128.00
2022-11-24T22:34:03.345Z,100140.34
2022-11-24T22:36:32.974Z,100142.56
2022-11-24T22:39:05.732Z,100144.75
2022-11-24T22:41:34.797Z,100151.34
2022-11-24T22:44:02.121Z,100137.50
2022-11-24T22:46:30.631Z,100145.00
2022-11-24T22:49:00.250Z,100151.69
2022-11-24T22:51:30.013Z,100150.94
2022-11-24T22:54:06.151Z,100146.31
2022-11-24T22:56:34.217Z,100150.59
2022-11-24T22:59:02.645Z,100153.47
2022-11-24T23:01:31.607Z,100151.72
2022-11-24T23:03:58.667Z,100151.88
2022-11-24T23:06:28.113Z,100154.91
2022-11-24T23:08:56.753Z,100152.41
2022-11-24T23:11:36.411Z,100158.47
2022-11-24T23:14:12.098Z,100151.63
2022-11-24T23:16:39.310Z,100153.28
2022-11-24T23:19:06.603Z,100154.06
2022-11-24T23:21:36.642Z,100155.91
2022-11-24T23:24:04.604Z,100162.78
2022-11-24T23:26:36.131Z,100162.78
2022-11-24T23:29:06.720Z,100162.38
2022-11-24T23:31:34.099Z,100164.53
2022-11-24T23:34:03.525Z,100171.13
2022-11-24T23:36:32.426Z,100176.38
2022-11-24T23:39:07.465Z,100173.00
2022-11-24T23:41:34.878Z,100166.66
2022-11-24T23:44:01.985Z,100169.19
2022-11-24T23:46:29.330Z,100178.91
2022-11-24T23:48:57.288Z,100174.00
2022-11-24T23:51:26.917Z,100178.03
2022-11-24T23:53:54.802Z,100177.03
2022-11-24T23:56:24.953Z,100175.19
2022-11-24T23:58:52.121Z,100176.78
